Bar Harbor, Maine
Current Conditions -  °F | °C
As of 6:55 AM on Thursday 23 Oct 2014 (Local Time) from KBHB Reporting Station
Overcast Overcast  
Wind Chill: 52°   Ceiling: 1000
Heat Index: 52°   Visibility: 7mi
Dew Point: 52°   Wind: 14mph
Humidity: 100%   Direction: 40°NE
Pressure: 29.9"   Gusts: 23mph
Location:  44.39°N, 68.2°W
Report Text: KBHB 231055Z AUTO 04012G20KT 7SM OVC010 11/11 A2990 RMK AO1 P0013
Loading
Personal Weather Stations






























Interactive Weather Map
Tropical Storm Tracking
New forecast layout! Learn more

10-Day Weather Forecast

Advertisements
Track Severe Weather on mobile